Time;durP1;ratioP1;P1;durP2;ratioP2;P2;SDS_P1;SDS_P2;PMS_P1;PMS_P2;Temp;Humidity;BMP_temperature;BMP_pressure;BME280_temperature;BME280_humidity;BME280_pressure;Samples;Min_cycle;Max_cycle;Signal;HPM_P1;HPM_P2
2023/09/16 00:00:33;;;;;;;2.13;1.92;;;28.10;53.60;;;;;;5013549;28;20038;-71
2023/09/16 00:03:00;;;;;;;2.50;2.25;;;28.10;53.50;;;;;;5011803;28;20473;-70
2023/09/16 00:05:26;;;;;;;2.92;2.35;;;28.10;53.60;;;;;;5013178;28;20061;-70
2023/09/16 00:07:53;;;;;;;2.17;1.98;;;28.20;53.60;;;;;;5011996;28;20049;-71
2023/09/16 00:10:19;;;;;;;2.88;2.08;;;28.20;53.60;;;;;;5012779;28;20062;-70
2023/09/16 00:12:45;;;;;;;3.03;1.90;;;28.20;53.60;;;;;;5013127;28;20131;-70
2023/09/16 00:15:11;;;;;;;2.90;2.13;;;28.30;53.60;;;;;;5011708;28;20115;-69
2023/09/16 00:17:37;;;;;;;2.33;2.13;;;28.30;53.60;;;;;;5013091;28;20049;-69
2023/09/16 00:20:15;;;;;;;2.65;2.05;;;28.20;53.60;;;;;;5012909;28;20040;-68
2023/09/16 00:22:44;;;;;;;2.17;1.98;;;28.20;53.60;;;;;;5012892;28;20371;-69
2023/09/16 00:25:13;;;;;;;2.90;1.77;;;28.30;53.60;;;;;;5012629;28;20053;-68
2023/09/16 00:27:39;;;;;;;4.45;2.85;;;28.30;53.60;;;;;;5011262;28;20399;-69
2023/09/16 00:30:06;;;;;;;4.47;2.10;;;28.30;53.70;;;;;;5010840;28;20113;-69
2023/09/16 00:32:32;;;;;;;2.03;1.80;;;28.10;53.70;;;;;;5011728;28;20073;-70
2023/09/16 00:34:58;;;;;;;2.10;2.00;;;28.20;53.60;;;;;;5011222;28;20068;-69
2023/09/16 00:37:24;;;;;;;1.88;1.77;;;28.20;53.60;;;;;;4995137;28;20034;-69
2023/09/16 00:39:51;;;;;;;2.25;2.05;;;28.20;53.60;;;;;;5011072;28;20030;-69
2023/09/16 00:42:17;;;;;;;2.63;2.00;;;28.20;53.60;;;;;;5012424;28;20022;-69
2023/09/16 00:44:44;;;;;;;2.05;1.92;;;28.10;53.70;;;;;;5011437;28;20076;-70
2023/09/16 00:47:09;;;;;;;2.47;1.98;;;28.10;53.70;;;;;;5012496;28;20038;-69
2023/09/16 00:49:36;;;;;;;2.80;2.45;;;28.20;53.90;;;;;;5012436;28;20137;-69
2023/09/16 00:52:02;;;;;;;2.10;1.90;;;28.10;53.90;;;;;;5012332;28;20041;-69
2023/09/16 00:54:29;;;;;;;2.78;1.92;;;28.20;53.90;;;;;;5011154;28;20058;-69
2023/09/16 00:56:58;;;;;;;2.35;2.05;;;28.20;53.90;;;;;;5012407;28;20085;-69
2023/09/16 00:59:25;;;;;;;5.38;2.03;;;28.10;54.00;;;;;;5010682;28;20386;-69
2023/09/16 01:01:53;;;;;;;3.88;2.20;;;28.10;54.00;;;;;;5011919;28;20042;-69
2023/09/16 01:04:21;;;;;;;5.13;1.88;;;28.00;54.00;;;;;;5011949;28;20037;-69
2023/09/16 01:06:50;;;;;;;4.13;2.20;;;28.20;54.00;;;;;;5011608;28;20363;-69
2023/09/16 01:09:20;;;;;;;2.42;1.85;;;28.20;54.00;;;;;;4994530;28;20044;-69
2023/09/16 01:11:47;;;;;;;2.85;2.08;;;28.10;54.10;;;;;;5010519;28;20037;-69
2023/09/16 01:14:13;;;;;;;2.75;2.08;;;28.00;54.10;;;;;;5012016;28;20034;-69
2023/09/16 01:16:47;;;;;;;3.33;2.40;;;28.30;54.10;;;;;;5011942;28;20049;-70
2023/09/16 01:19:31;;;;;;;2.30;1.83;;;28.20;54.10;;;;;;5011700;28;20061;-69
2023/09/16 01:21:58;;;;;;;2.63;2.42;;;28.30;54.10;;;;;;5010629;28;20060;-69
2023/09/16 01:24:24;;;;;;;3.65;2.30;;;28.10;54.00;;;;;;5011985;28;20037;-69
2023/09/16 01:26:51;;;;;;;4.43;2.40;;;28.30;54.10;;;;;;5011734;28;20053;-69
2023/09/16 01:29:19;;;;;;;3.25;2.47;;;28.20;54.00;;;;;;5010472;28;20040;-69
2023/09/16 01:31:46;;;;;;;3.35;2.38;;;28.20;54.00;;;;;;4992165;28;20478;-69
2023/09/16 01:34:25;;;;;;;2.92;1.92;;;28.20;54.10;;;;;;4990930;28;20367;-69
2023/09/16 01:36:54;;;;;;;2.50;2.30;;;28.10;54.10;;;;;;4992116;28;20072;-68
2023/09/16 01:39:25;;;;;;;2.08;1.90;;;28.20;54.10;;;;;;4991961;28;20065;-69
2023/09/16 01:41:56;;;;;;;2.58;2.15;;;28.10;54.00;;;;;;4990511;28;20045;-69
2023/09/16 01:44:22;;;;;;;3.03;2.28;;;28.10;54.10;;;;;;4995185;28;20040;-69
2023/09/16 01:46:48;;;;;;;2.53;2.30;;;28.00;54.20;;;;;;5010396;28;20482;-68
2023/09/16 01:49:14;;;;;;;2.65;2.10;;;28.10;54.20;;;;;;5011591;28;20459;-69
2023/09/16 01:51:40;;;;;;;3.63;2.30;;;28.10;54.20;;;;;;5011465;28;20072;-69
2023/09/16 01:54:07;;;;;;;3.35;2.25;;;28.10;54.30;;;;;;5011287;28;20037;-68
2023/09/16 01:56:33;;;;;;;5.07;2.30;;;28.20;54.30;;;;;;5010114;28;20092;-69
2023/09/16 01:58:59;;;;;;;3.97;2.53;;;28.10;54.30;;;;;;5011664;28;20042;-69
2023/09/16 02:01:25;;;;;;;3.47;2.50;;;28.20;54.30;;;;;;5009787;28;20046;-69
2023/09/16 02:03:51;;;;;;;3.80;2.58;;;28.10;54.30;;;;;;5010279;28;20038;-69
2023/09/16 02:06:17;;;;;;;2.80;2.60;;;28.10;54.30;;;;;;5011364;28;20033;-69
2023/09/16 02:08:43;;;;;;;2.45;2.10;;;28.20;54.30;;;;;;5011368;28;20029;-69
2023/09/16 02:11:09;;;;;;;5.63;2.60;;;28.20;54.30;;;;;;5011099;28;20076;-69
2023/09/16 02:13:36;;;;;;;2.97;2.30;;;28.10;54.40;;;;;;5009944;28;20065;-69
2023/09/16 02:16:02;;;;;;;2.33;2.13;;;28.10;54.30;;;;;;5011004;28;20054;-69
2023/09/16 02:18:29;;;;;;;2.30;2.08;;;28.20;54.30;;;;;;5009973;28;20041;-69
2023/09/16 02:20:55;;;;;;;3.47;2.25;;;28.20;54.20;;;;;;5009454;28;20081;-70
2023/09/16 02:23:22;;;;;;;2.92;2.15;;;28.10;54.30;;;;;;5010965;28;20089;-69
2023/09/16 02:25:48;;;;;;;2.30;1.92;;;28.10;54.30;;;;;;5010998;28;20109;-69
2023/09/16 02:28:14;;;;;;;2.35;2.15;;;28.10;54.30;;;;;;5011237;28;20855;-69
2023/09/16 02:30:40;;;;;;;2.22;2.05;;;28.20;54.20;;;;;;5011219;28;20026;-69
2023/09/16 02:33:06;;;;;;;2.78;2.25;;;28.10;54.30;;;;;;5009999;28;20044;-69
2023/09/16 02:35:32;;;;;;;3.08;1.85;;;28.10;54.30;;;;;;5009817;28;20046;-69
2023/09/16 02:37:58;;;;;;;2.58;2.10;;;28.10;54.40;;;;;;5009718;28;20034;-68
2023/09/16 02:40:25;;;;;;;5.63;1.98;;;28.20;54.40;;;;;;5009608;28;20417;-69
2023/09/16 02:42:51;;;;;;;2.10;1.95;;;28.20;54.40;;;;;;5010990;28;20113;-69
2023/09/16 02:45:17;;;;;;;3.03;1.83;;;28.00;54.40;;;;;;4993401;28;20117;-69
2023/09/16 02:47:43;;;;;;;3.75;2.38;;;28.00;54.40;;;;;;5009763;28;20041;-69
2023/09/16 02:50:09;;;;;;;1.90;1.80;;;28.20;54.40;;;;;;5009425;28;20036;-69
2023/09/16 02:52:35;;;;;;;2.25;2.05;;;28.10;54.40;;;;;;5011981;28;20061;-69
2023/09/16 02:55:01;;;;;;;2.85;1.92;;;28.00;54.40;;;;;;5013127;28;20462;-69
2023/09/16 02:57:27;;;;;;;3.50;1.90;;;28.10;54.40;;;;;;5013196;28;20070;-69
2023/09/16 02:59:53;;;;;;;2.58;2.22;;;28.00;54.50;;;;;;5013170;28;20038;-69
2023/09/16 03:02:20;;;;;;;2.20;2.00;;;28.10;54.50;;;;;;5013419;28;20033;-69
2023/09/16 03:04:46;;;;;;;3.50;1.92;;;28.00;54.50;;;;;;5013095;28;20045;-69
2023/09/16 03:07:12;;;;;;;3.75;2.00;;;28.00;54.50;;;;;;5013401;28;20038;-69
2023/09/16 03:09:38;;;;;;;5.03;2.00;;;28.00;54.50;;;;;;5012734;28;20120;-70
2023/09/16 03:12:07;;;;;;;1.75;1.58;;;28.00;54.50;;;;;;5012897;28;20034;-68
2023/09/16 03:14:33;;;;;;;3.95;2.03;;;28.00;54.60;;;;;;5014198;28;20471;-69
2023/09/16 03:16:59;;;;;;;2.53;1.95;;;28.00;54.70;;;;;;5013063;28;20109;-68
2023/09/16 03:19:28;;;;;;;2.83;2.10;;;28.00;54.70;;;;;;5012769;28;20115;-69
2023/09/16 03:21:54;;;;;;;2.50;2.28;;;27.90;54.20;;;;;;5012269;28;20050;-69
2023/09/16 03:24:20;;;;;;;2.55;2.30;;;28.10;54.80;;;;;;5012926;28;20038;-70
2023/09/16 03:26:46;;;;;;;3.33;2.40;;;27.90;54.20;;;;;;5013818;28;20382;-69
2023/09/16 03:29:14;;;;;;;2.47;2.10;;;28.10;54.90;;;;;;5012666;28;20033;-69
2023/09/16 03:31:40;;;;;;;3.72;2.13;;;28.00;54.80;;;;;;5012701;28;20119;-69
2023/09/16 03:34:11;;;;;;;2.15;1.83;;;28.10;54.90;;;;;;4998545;28;20565;-70
2023/09/16 03:36:37;;;;;;;2.55;1.60;;;28.00;54.90;;;;;;4993953;28;20049;-70
2023/09/16 03:39:05;;;;;;;1.38;1.27;;;28.20;54.90;;;;;;4994099;28;20046;-70
2023/09/16 03:41:31;;;;;;;1.27;1.17;;;28.10;54.80;;;;;;4992877;28;20034;-69
2023/09/16 03:43:59;;;;;;;1.17;1.10;;;28.00;54.80;;;;;;4992865;28;20394;-70
2023/09/16 03:46:27;;;;;;;1.20;1.10;;;28.10;54.80;;;;;;4992982;28;20125;-70
2023/09/16 03:48:56;;;;;;;1.20;1.10;;;28.00;54.70;;;;;;4976717;28;20482;-70
2023/09/16 03:51:26;;;;;;;1.25;1.15;;;28.20;54.70;;;;;;4992179;28;20435;-70
2023/09/16 03:53:54;;;;;;;1.00;0.98;;;28.20;54.70;;;;;;4992453;28;20038;-70
2023/09/16 03:56:21;;;;;;;3.10;1.90;;;28.20;54.70;;;;;;5001319;28;20026;-72
2023/09/16 03:58:47;;;;;;;1.55;1.20;;;28.10;54.60;;;;;;5012215;28;20044;-73
2023/09/16 04:01:14;;;;;;;1.10;1.00;;;28.20;56.50;;;;;;5011820;28;20026;-74
2023/09/16 04:03:40;;;;;;;1.20;1.10;;;28.70;58.20;;;;;;5010871;28;20049;-72
2023/09/16 04:06:06;;;;;;;1.33;1.23;;;29.10;60.30;;;;;;5012006;28;20046;-73
2023/09/16 04:08:32;;;;;;;3.13;1.35;;;29.10;61.00;;;;;;5012136;28;20033;-73
2023/09/16 04:10:59;;;;;;;1.50;1.40;;;29.10;56.80;;;;;;5012079;28;20030;-72
2023/09/16 04:13:26;;;;;;;1.48;1.38;;;28.90;55.30;;;;;;5012033;28;20034;-71
2023/09/16 04:15:53;;;;;;;4.03;1.33;;;28.90;54.50;;;;;;5011518;28;20121;-73
2023/09/16 04:18:19;;;;;;;1.50;1.40;;;28.70;54.00;;;;;;5012982;28;20038;-73
2023/09/16 04:20:50;;;;;;;2.30;1.40;;;28.80;53.80;;;;;;5011532;28;20042;-72
2023/09/16 04:23:16;;;;;;;1.60;1.50;;;28.70;53.60;;;;;;5012126;28;20041;-73
2023/09/16 04:25:43;;;;;;;2.30;1.35;;;28.60;53.60;;;;;;5011679;28;20042;-73
2023/09/16 04:28:09;;;;;;;3.70;1.50;;;28.80;53.60;;;;;;5011831;28;20061;-72
2023/09/16 04:30:45;;;;;;;1.50;1.40;;;28.70;53.30;;;;;;5011523;28;20080;-73
2023/09/16 04:33:11;;;;;;;2.17;1.50;;;28.70;53.20;;;;;;5011669;28;20041;-72
2023/09/16 04:35:49;;;;;;;1.55;1.42;;;28.70;53.10;;;;;;5012848;28;20096;-72
2023/09/16 04:38:16;;;;;;;2.10;1.80;;;28.60;53.00;;;;;;5011741;28;20038;-73
2023/09/16 04:40:44;;;;;;;1.70;1.60;;;28.70;52.80;;;;;;4995677;28;20034;-73
2023/09/16 04:43:14;;;;;;;1.98;1.77;;;28.60;52.80;;;;;;5011689;28;20536;-73
2023/09/16 04:45:44;;;;;;;1.73;1.50;;;28.70;52.70;;;;;;5011462;28;20060;-73
2023/09/16 04:48:14;;;;;;;1.58;1.05;;;28.50;52.70;;;;;;5011744;28;20041;-73
2023/09/16 04:50:43;;;;;;;1.38;1.27;;;28.60;52.70;;;;;;5011425;28;20496;-74
2023/09/16 04:53:10;;;;;;;2.03;1.30;;;28.60;52.60;;;;;;5011399;28;20477;-72
2023/09/16 04:55:37;;;;;;;1.48;1.35;;;28.50;52.50;;;;;;5011404;28;20446;-72
2023/09/16 04:58:03;;;;;;;2.67;1.85;;;28.70;52.50;;;;;;5012737;28;20042;-72
2023/09/16 05:00:33;;;;;;;2.78;1.52;;;28.60;54.00;;;;;;5011393;28;20028;-72
2023/09/16 05:03:01;;;;;;;1.40;1.30;;;28.70;54.70;;;;;;5011101;28;20048;-72
2023/09/16 05:05:27;;;;;;;2.83;1.63;;;28.90;55.60;;;;;;5011195;28;20061;-71
2023/09/16 05:07:53;;;;;;;2.55;2.35;;;28.90;56.80;;;;;;5012552;28;20117;-71
2023/09/16 05:10:19;;;;;;;4.22;2.30;;;29.00;56.20;;;;;;5012256;28;20188;-71
2023/09/16 05:12:45;;;;;;;4.10;2.70;;;29.10;54.70;;;;;;4994429;28;20037;-73
2023/09/16 05:15:11;;;;;;;3.00;2.40;;;28.90;53.40;;;;;;4994237;28;20121;-71
2023/09/16 05:17:38;;;;;;;1.95;1.85;;;28.80;53.10;;;;;;5010774;28;20370;-72
2023/09/16 05:20:06;;;;;;;3.58;2.15;;;28.90;52.50;;;;;;5010878;28;20030;-71
2023/09/16 05:22:32;;;;;;;4.95;3.17;;;28.80;52.20;;;;;;4994538;28;20050;-72
2023/09/16 05:24:58;;;;;;;3.50;3.20;;;28.80;51.90;;;;;;5011897;28;20462;-74
2023/09/16 05:27:25;;;;;;;3.75;2.90;;;28.70;51.40;;;;;;5027460;28;20125;-73
2023/09/16 05:29:52;;;;;;;2.95;2.65;;;28.80;51.30;;;;;;5010711;28;20030;-73
2023/09/16 05:32:19;;;;;;;2.47;2.10;;;28.80;51.20;;;;;;5010753;28;20088;-72
2023/09/16 05:34:45;;;;;;;2.72;2.53;;;28.70;51.10;;;;;;5009561;28;20720;-73
2023/09/16 05:37:12;;;;;;;3.35;2.58;;;28.70;50.80;;;;;;4991161;28;20108;-71
2023/09/16 05:39:39;;;;;;;3.45;2.63;;;28.70;50.60;;;;;;4990557;28;20478;-71
2023/09/16 05:42:05;;;;;;;2.70;2.50;;;28.80;50.80;;;;;;4991510;28;20038;-72
2023/09/16 05:44:31;;;;;;;4.32;3.50;;;28.80;50.90;;;;;;4990948;28;20053;-73
2023/09/16 05:46:59;;;;;;;2.60;2.40;;;28.60;51.30;;;;;;4990842;28;20471;-73
2023/09/16 05:49:26;;;;;;;3.45;2.22;;;28.70;52.00;;;;;;4975384;28;20031;-73
2023/09/16 05:51:52;;;;;;;2.58;2.38;;;28.60;52.00;;;;;;4990640;28;20034;-72
2023/09/16 05:54:18;;;;;;;3.28;2.30;;;28.70;52.00;;;;;;4990893;28;20030;-71
2023/09/16 05:56:46;;;;;;;5.70;2.20;;;28.70;52.70;;;;;;4991024;28;20461;-73
2023/09/16 05:59:14;;;;;;;2.70;2.13;;;28.60;52.70;;;;;;4991025;28;20113;-73
2023/09/16 06:01:40;;;;;;;3.35;2.05;;;28.60;52.10;;;;;;4992677;28;20033;-72
2023/09/16 06:04:08;;;;;;;2.30;2.10;;;28.50;52.00;;;;;;5010544;28;20038;-73
2023/09/16 06:06:35;;;;;;;21.33;7.47;;;28.60;55.30;;;;;;5010210;28;20088;-74
2023/09/16 06:09:05;;;;;;;376.60;132.98;;;28.90;55.60;;;;;;5010228;28;20095;-73
2023/09/16 06:11:31;;;;;;;190.80;62.35;;;29.10;57.60;;;;;;5011692;28;20033;-72
2023/09/16 06:13:57;;;;;;;76.68;23.95;;;29.20;58.10;;;;;;5010483;28;20054;-72
2023/09/16 06:16:23;;;;;;;73.93;20.38;;;29.30;57.90;;;;;;5010134;28;20104;-73
2023/09/16 06:18:49;;;;;;;68.88;17.45;;;29.30;59.60;;;;;;5011527;28;20056;-72
2023/09/16 06:21:16;;;;;;;82.15;21.02;;;29.50;60.80;;;;;;5027902;28;20049;-73
2023/09/16 06:23:45;;;;;;;83.43;21.90;;;29.50;63.40;;;;;;5012173;28;20057;-71
2023/09/16 06:26:12;;;;;;;50.22;14.90;;;29.70;57.50;;;;;;5012591;28;20508;-72
2023/09/16 06:28:41;;;;;;;109.55;24.33;;;29.90;58.60;;;;;;5016186;28;20046;-74
2023/09/16 06:31:08;;;;;;;131.75;28.95;;;29.80;65.40;;;;;;5015867;28;20045;-73
2023/09/16 06:33:37;;;;;;;120.43;32.58;;;30.20;66.40;;;;;;4999260;28;20037;-74
2023/09/16 06:36:04;;;;;;;171.45;49.22;;;30.10;68.40;;;;;;5016134;28;20513;-74
2023/09/16 06:38:30;;;;;;;76.15;27.02;;;30.50;73.50;;;;;;4973087;28;20499;-73
2023/09/16 06:40:56;;;;;;;111.82;60.92;;;30.60;62.20;;;;;;4972945;28;20054;-73
2023/09/16 06:43:23;;;;;;;151.98;49.03;;;30.50;57.90;;;;;;4972810;28;20047;-73
2023/09/16 06:45:50;;;;;;;29.90;11.38;;;30.50;56.90;;;;;;4940805;28;20411;-71
2023/09/16 06:48:16;;;;;;;24.83;8.82;;;30.40;54.10;;;;;;4972883;28;20031;-70
2023/09/16 06:50:43;;;;;;;7.13;5.13;;;30.30;52.80;;;;;;4972850;28;20065;-72
2023/09/16 06:53:09;;;;;;;9.15;5.45;;;30.00;54.70;;;;;;4956038;28;20118;-74
2023/09/16 06:55:35;;;;;;;8.23;5.97;;;30.10;53.50;;;;;;4953759;29;20051;-74
2023/09/16 06:58:04;;;;;;;12.15;6.53;;;30.00;53.40;;;;;;4953973;29;20851;-74
2023/09/16 07:00:30;;;;;;;14.43;6.10;;;29.90;52.70;;;;;;4953815;29;20528;-75
2023/09/16 07:02:58;;;;;;;13.02;6.47;;;29.90;52.70;;;;;;4953742;29;20051;-73
2023/09/16 07:05:24;;;;;;;16.67;6.57;;;29.80;52.60;;;;;;4954003;29;20061;-73
2023/09/16 07:07:52;;;;;;;12.68;6.60;;;29.70;52.50;;;;;;4953900;29;20076;-73
2023/09/16 07:10:19;;;;;;;14.80;6.00;;;29.70;52.50;;;;;;4953802;29;20046;-73
2023/09/16 07:12:45;;;;;;;17.05;6.50;;;29.60;52.70;;;;;;4969576;28;20533;-74
2023/09/16 07:15:11;;;;;;;12.55;5.90;;;29.70;53.10;;;;;;4980597;28;20050;-75
2023/09/16 07:17:38;;;;;;;14.93;6.88;;;29.70;53.50;;;;;;5014195;28;20496;-74
2023/09/16 07:20:04;;;;;;;15.80;6.20;;;29.60;53.70;;;;;;5013159;28;20045;-73
2023/09/16 07:22:30;;;;;;;7.07;5.85;;;29.60;53.70;;;;;;5014251;28;20061;-74
2023/09/16 07:24:57;;;;;;;16.40;6.30;;;29.40;53.50;;;;;;5014347;28;20030;-75
2023/09/16 07:27:22;;;;;;;9.60;6.00;;;29.60;53.60;;;;;;5014366;28;20030;-73
2023/09/16 07:29:49;;;;;;;13.52;6.15;;;29.40;53.70;;;;;;5012963;28;20034;-73
2023/09/16 07:32:14;;;;;;;7.57;6.72;;;29.30;53.60;;;;;;5009997;28;20558;-74
2023/09/16 07:34:40;;;;;;;13.30;5.90;;;29.50;53.70;;;;;;5014325;28;20041;-74
2023/09/16 07:37:06;;;;;;;11.25;5.15;;;29.40;53.60;;;;;;5013929;28;20041;-75
2023/09/16 07:39:32;;;;;;;13.75;5.95;;;29.40;53.70;;;;;;5012850;28;20029;-75
2023/09/16 07:41:58;;;;;;;11.30;5.50;;;29.40;53.90;;;;;;5013657;28;20062;-74
2023/09/16 07:44:26;;;;;;;12.70;6.03;;;29.40;53.90;;;;;;5012377;28;20034;-75
2023/09/16 07:46:52;;;;;;;10.70;5.55;;;29.50;53.80;;;;;;5012491;28;20091;-73
2023/09/16 07:49:18;;;;;;;9.48;5.07;;;29.30;53.70;;;;;;4999105;28;20113;-74
2023/09/16 07:51:46;;;;;;;9.52;5.22;;;29.40;53.40;;;;;;4993006;28;20578;-71
2023/09/16 07:54:15;;;;;;;8.30;5.78;;;29.40;53.10;;;;;;4992585;28;20375;-73
2023/09/16 07:56:41;;;;;;;9.32;4.95;;;29.30;52.60;;;;;;4994071;28;20039;-72
2023/09/16 07:59:07;;;;;;;9.50;5.00;;;29.50;52.50;;;;;;5008616;28;20029;-73
2023/09/16 08:01:33;;;;;;;7.35;5.05;;;29.20;52.40;;;;;;5013807;28;20026;-72
2023/09/16 08:03:59;;;;;;;7.47;4.88;;;29.20;52.20;;;;;;5013329;28;20022;-72
2023/09/16 08:06:26;;;;;;;6.55;5.47;;;29.20;51.70;;;;;;5011997;28;20063;-71
2023/09/16 08:08:54;;;;;;;9.57;5.70;;;29.30;51.70;;;;;;5013610;28;20038;-73
2023/09/16 08:11:20;;;;;;;7.85;4.97;;;29.30;51.80;;;;;;5013185;28;20417;-71
2023/09/16 08:13:47;;;;;;;10.27;5.20;;;29.20;51.70;;;;;;5012937;28;20046;-74
2023/09/16 08:16:13;;;;;;;6.32;5.07;;;29.10;51.40;;;;;;5013370;28;20074;-74
2023/09/16 08:18:39;;;;;;;8.25;5.13;;;29.20;51.30;;;;;;5013580;28;20077;-74
2023/09/16 08:21:05;;;;;;;9.15;5.43;;;29.20;51.60;;;;;;5013283;28;20049;-74
2023/09/16 08:23:31;;;;;;;10.25;5.60;;;29.10;51.90;;;;;;5013249;28;20421;-75
2023/09/16 08:25:57;;;;;;;9.18;5.55;;;29.30;52.00;;;;;;5013300;28;20041;-78
2023/09/16 08:28:23;;;;;;;8.52;6.07;;;29.10;52.00;;;;;;5013251;28;20040;-77
2023/09/16 08:30:50;;;;;;;7.93;6.20;;;29.10;51.90;;;;;;5013662;28;20398;-77
2023/09/16 08:33:16;;;;;;;7.72;5.50;;;29.10;51.80;;;;;;5012998;28;20045;-76
2023/09/16 08:35:42;;;;;;;7.20;5.57;;;29.00;51.60;;;;;;5012952;28;20046;-76
2023/09/16 08:38:09;;;;;;;6.72;5.55;;;29.10;51.40;;;;;;5013486;28;20038;-75
2023/09/16 08:40:35;;;;;;;18.75;11.57;;;29.10;51.20;;;;;;5012000;28;20045;-75
2023/09/16 08:43:07;;;;;;;21.30;15.80;;;29.10;51.50;;;;;;5012770;28;20049;-75
2023/09/16 08:45:37;;;;;;;18.92;12.27;;;29.00;51.60;;;;;;5013029;28;20057;-74
2023/09/16 08:48:05;;;;;;;11.60;8.30;;;29.20;54.00;;;;;;5012704;28;20026;-73
2023/09/16 08:50:32;;;;;;;19.13;9.45;;;29.50;54.10;;;;;;5011908;28;20048;-71
2023/09/16 08:53:07;;;;;;;13.98;8.93;;;29.80;53.60;;;;;;5012286;28;20490;-71
2023/09/16 08:55:35;;;;;;;13.70;8.00;;;29.90;53.20;;;;;;5012289;28;20164;-71
2023/09/16 08:58:06;;;;;;;14.02;8.55;;;29.90;52.20;;;;;;5011261;28;20041;-71
2023/09/16 09:00:32;;;;;;;11.93;8.57;;;29.80;53.00;;;;;;5011156;28;20026;-71
2023/09/16 09:02:58;;;;;;;13.55;8.98;;;29.90;50.60;;;;;;5012491;28;20045;-71
2023/09/16 09:05:26;;;;;;;12.82;8.75;;;29.80;50.20;;;;;;5012271;28;20041;-70
2023/09/16 09:07:52;;;;;;;11.82;7.95;;;29.80;50.90;;;;;;5012333;28;20080;-74
2023/09/16 09:10:18;;;;;;;13.32;8.40;;;29.70;50.40;;;;;;4994937;28;20094;-73
2023/09/16 09:12:44;;;;;;;14.75;8.13;;;29.80;50.40;;;;;;5010849;28;20446;-73
2023/09/16 09:15:12;;;;;;;16.30;8.40;;;29.70;50.10;;;;;;5010782;28;20565;-74
2023/09/16 09:17:48;;;;;;;14.52;7.72;;;29.70;50.00;;;;;;5012225;28;20052;-74
2023/09/16 09:20:19;;;;;;;12.05;7.70;;;29.60;50.00;;;;;;5010776;28;20354;-72
2023/09/16 09:22:47;;;;;;;10.43;7.38;;;29.70;50.10;;;;;;5012382;28;20045;-73
2023/09/16 09:25:13;;;;;;;11.05;7.35;;;29.70;50.20;;;;;;5012058;28;20030;-73
2023/09/16 09:27:39;;;;;;;12.43;8.52;;;29.80;50.30;;;;;;5011889;28;20096;-72
2023/09/16 09:30:06;;;;;;;14.45;7.13;;;29.60;50.40;;;;;;5011832;28;20030;-72
2023/09/16 09:32:33;;;;;;;11.23;7.22;;;29.60;50.50;;;;;;5011667;28;20026;-71
2023/09/16 09:35:05;;;;;;;10.27;7.57;;;29.70;50.60;;;;;;4995972;28;20128;-71
2023/09/16 09:37:31;;;;;;;9.65;6.75;;;29.70;50.80;;;;;;5028998;28;20428;-71
2023/09/16 09:40:12;;;;;;;11.02;7.25;;;29.70;50.70;;;;;;5026042;28;20037;-70
2023/09/16 09:42:45;;;;;;;10.95;6.90;;;29.70;50.80;;;;;;5028724;28;20038;-71
2023/09/16 09:45:13;;;;;;;10.25;7.65;;;29.60;50.80;;;;;;5028730;28;20052;-71
2023/09/16 09:47:40;;;;;;;9.00;7.10;;;29.60;50.70;;;;;;5028967;28;20052;-70
2023/09/16 09:50:10;;;;;;;9.90;6.95;;;29.60;50.00;;;;;;5029020;28;20041;-70
2023/09/16 09:52:36;;;;;;;8.70;6.40;;;29.60;50.10;;;;;;5028695;28;20049;-70
2023/09/16 09:55:03;;;;;;;9.70;5.90;;;29.50;50.00;;;;;;5028853;28;20588;-70
2023/09/16 09:57:29;;;;;;;8.07;6.72;;;29.80;49.80;;;;;;5012260;28;20045;-71
2023/09/16 09:59:57;;;;;;;13.15;7.90;;;29.50;49.70;;;;;;5029322;28;20103;-70
2023/09/16 10:02:27;;;;;;;7.95;6.30;;;29.50;49.60;;;;;;5028763;28;20112;-71
2023/09/16 10:05:01;;;;;;;8.25;6.03;;;29.50;49.50;;;;;;4969918;28;20609;-70
2023/09/16 10:07:30;;;;;;;8.45;6.97;;;29.40;49.50;;;;;;4950329;29;20062;-70
2023/09/16 10:09:56;;;;;;;7.95;5.82;;;29.50;49.40;;;;;;4950615;29;20082;-70
2023/09/16 10:12:23;;;;;;;10.40;6.60;;;29.60;49.90;;;;;;4950711;29;20082;-70
2023/09/16 10:14:51;;;;;;;7.47;5.80;;;29.50;49.90;;;;;;4950151;29;20063;-71
2023/09/16 10:17:18;;;;;;;8.43;6.75;;;29.40;49.80;;;;;;4950416;29;20098;-73
2023/09/16 10:19:44;;;;;;;6.22;5.32;;;29.50;49.90;;;;;;4950250;29;20117;-71
2023/09/16 10:22:12;;;;;;;7.78;5.97;;;29.40;50.80;;;;;;4934207;29;20059;-74
2023/09/16 10:24:42;;;;;;;8.35;6.30;;;29.50;53.10;;;;;;4950458;29;20079;-74
2023/09/16 10:27:19;;;;;;;12.18;6.07;;;29.60;52.00;;;;;;4934341;29;20443;-73
2023/09/16 10:29:49;;;;;;;8.25;5.95;;;29.60;51.10;;;;;;4950494;29;20065;-74
2023/09/16 10:32:19;;;;;;;8.15;6.07;;;29.60;51.00;;;;;;4950421;29;20050;-73
2023/09/16 10:34:46;;;;;;;10.13;7.35;;;29.70;52.50;;;;;;4952130;28;20082;-71
2023/09/16 10:37:16;;;;;;;8.82;6.28;;;29.70;50.10;;;;;;4992370;28;20042;-74
2023/09/16 10:39:45;;;;;;;9.75;6.25;;;29.70;50.20;;;;;;4993543;28;20038;-74
2023/09/16 10:42:16;;;;;;;7.22;5.80;;;29.60;50.30;;;;;;5011248;28;20037;-71
2023/09/16 10:44:42;;;;;;;5.97;5.18;;;29.80;50.10;;;;;;5000495;28;20034;-71
2023/09/16 10:47:09;;;;;;;10.15;6.30;;;29.50;51.90;;;;;;4991779;28;20045;-73
2023/09/16 10:49:35;;;;;;;11.45;6.78;;;29.70;53.60;;;;;;4991591;28;20049;-73
2023/09/16 10:52:08;;;;;;;7.55;6.35;;;30.30;56.80;;;;;;4991960;28;20033;-74
2023/09/16 10:54:55;;;;;;;7.60;5.75;;;30.30;51.30;;;;;;4991474;28;20034;-73
2023/09/16 10:57:32;;;;;;;14.10;6.35;;;30.20;50.30;;;;;;4991696;28;20031;-75
2023/09/16 11:00:02;;;;;;;8.70;6.97;;;30.00;50.00;;;;;;4990362;28;20143;-74
2023/09/16 11:02:58;;;;;;;10.52;6.93;;;30.00;49.80;;;;;;4991812;28;20038;-72
2023/09/16 11:05:26;;;;;;;7.50;6.28;;;30.00;49.80;;;;;;4990487;28;20096;-74
2023/09/16 11:07:55;;;;;;;8.57;6.53;;;29.90;49.10;;;;;;4991533;28;20039;-72
2023/09/16 11:10:23;;;;;;;6.95;5.82;;;29.90;49.10;;;;;;4991497;28;20133;-71
2023/09/16 11:12:50;;;;;;;11.82;8.50;;;29.80;49.10;;;;;;4992391;28;20383;-72
2023/09/16 11:15:17;;;;;;;9.98;6.10;;;30.20;55.10;;;;;;4994402;28;20051;-73
2023/09/16 11:17:43;;;;;;;8.85;7.07;;;30.70;55.40;;;;;;4995501;28;20048;-73
2023/09/16 11:20:19;;;;;;;11.57;6.85;;;31.00;53.60;;;;;;4994703;28;20387;-72
2023/09/16 11:22:47;;;;;;;10.68;6.60;;;30.70;50.10;;;;;;4993939;28;20077;-74
2023/09/16 11:25:16;;;;;;;7.85;6.07;;;30.60;49.50;;;;;;4994768;28;20026;-74
2023/09/16 11:27:44;;;;;;;10.13;7.03;;;30.40;49.30;;;;;;4994850;28;20062;-73
2023/09/16 11:30:14;;;;;;;12.02;6.93;;;30.40;49.10;;;;;;4995061;28;20459;-73
2023/09/16 11:33:01;;;;;;;7.55;5.95;;;30.40;48.80;;;;;;4995151;28;20034;-73
2023/09/16 11:35:28;;;;;;;11.05;6.50;;;30.30;48.60;;;;;;4991951;28;20054;-74
2023/09/16 11:37:55;;;;;;;8.77;6.10;;;30.30;48.40;;;;;;4992385;28;20042;-73
2023/09/16 11:40:29;;;;;;;7.93;6.45;;;30.30;48.30;;;;;;4960105;28;20859;-73
2023/09/16 11:42:56;;;;;;;8.93;6.13;;;30.30;48.20;;;;;;4956919;28;20027;-72
2023/09/16 11:45:23;;;;;;;6.85;6.15;;;30.20;48.20;;;;;;4972755;28;20046;-74
2023/09/16 11:47:49;;;;;;;9.55;5.63;;;30.10;48.10;;;;;;4972480;28;20138;-76
2023/09/16 11:50:26;;;;;;;8.75;5.80;;;30.20;50.60;;;;;;4972203;28;20049;-75
2023/09/16 11:52:53;;;;;;;9.23;6.22;;;30.20;49.40;;;;;;4982112;28;20085;-75
2023/09/16 11:55:20;;;;;;;7.88;5.93;;;30.10;49.20;;;;;;4991147;28;20537;-72
2023/09/16 11:57:47;;;;;;;8.75;6.22;;;30.00;49.40;;;;;;4991756;28;20406;-73
2023/09/16 12:00:13;;;;;;;7.18;5.28;;;30.10;49.30;;;;;;4974981;28;20070;-73
2023/09/16 12:02:42;;;;;;;8.10;5.43;;;30.10;49.30;;;;;;4975684;28;20041;-72
2023/09/16 12:05:14;;;;;;;6.78;5.93;;;29.90;48.80;;;;;;4975427;28;20447;-74
2023/09/16 12:07:41;;;;;;;7.45;5.95;;;29.90;48.60;;;;;;4991598;28;20049;-74
2023/09/16 12:10:08;;;;;;;7.97;6.28;;;30.00;49.40;;;;;;4975026;28;20046;-75
2023/09/16 12:12:34;;;;;;;6.13;5.53;;;29.80;49.00;;;;;;5002366;28;20126;-74
2023/09/16 12:15:02;;;;;;;8.63;6.32;;;29.80;49.10;;;;;;5011740;28;20077;-74
2023/09/16 12:17:29;;;;;;;6.78;5.70;;;29.90;49.20;;;;;;5013176;28;20030;-74
2023/09/16 12:19:59;;;;;;;7.82;5.70;;;29.80;49.20;;;;;;5013390;28;20030;-74
2023/09/16 12:22:25;;;;;;;9.88;6.90;;;29.90;49.10;;;;;;4995788;28;20058;-75
2023/09/16 12:24:54;;;;;;;7.35;5.57;;;29.70;49.20;;;;;;5012491;28;20129;-77
2023/09/16 12:27:24;;;;;;;8.00;6.32;;;29.80;49.30;;;;;;5014034;28;20026;-75
2023/09/16 12:29:50;;;;;;;9.13;6.47;;;29.80;49.30;;;;;;4996221;28;20433;-76
2023/09/16 12:32:21;;;;;;;8.88;6.50;;;29.80;49.40;;;;;;5013469;28;20030;-74
2023/09/16 12:35:06;;;;;;;6.78;6.07;;;30.10;53.90;;;;;;5012144;28;20415;-75
2023/09/16 12:37:32;;;;;;;6.90;5.70;;;30.80;53.10;;;;;;5013645;28;20083;-75
2023/09/16 12:39:58;;;;;;;13.02;6.93;;;31.40;55.10;;;;;;5013489;28;20036;-76
2023/09/16 12:42:25;;;;;;;16.52;7.85;;;31.80;55.10;;;;;;5012624;28;20112;-76
2023/09/16 12:44:52;;;;;;;9.02;6.32;;;31.80;52.20;;;;;;5013134;28;20033;-78